sensor_id;sensor_type;location;lat;lon;timestamp;P1;durP1;ratioP1;P2;durP2;ratioP2
4420;SDS011;11824;51.178;13.546;2023-08-12T00:02:03;9.83;;;8.23;;
4420;SDS011;11824;51.178;13.546;2023-08-12T00:04:33;14.30;;;11.10;;
4420;SDS011;11824;51.178;13.546;2023-08-12T00:07:02;13.80;;;9.67;;
4420;SDS011;11824;51.178;13.546;2023-08-12T00:09:31;20.00;;;11.47;;
4420;SDS011;11824;51.178;13.546;2023-08-12T00:12:00;21.60;;;11.07;;
4420;SDS011;11824;51.178;13.546;2023-08-12T00:14:28;22.43;;;10.33;;
4420;SDS011;11824;51.178;13.546;2023-08-12T00:16:57;13.80;;;10.43;;
4420;SDS011;11824;51.178;13.546;2023-08-12T00:19:26;16.93;;;10.17;;
4420;SDS011;11824;51.178;13.546;2023-08-12T00:21:56;13.17;;;9.93;;
4420;SDS011;11824;51.178;13.546;2023-08-12T00:24:25;16.90;;;9.63;;
4420;SDS011;11824;51.178;13.546;2023-08-12T00:26:53;15.87;;;10.40;;
4420;SDS011;11824;51.178;13.546;2023-08-12T00:29:22;14.20;;;10.07;;
4420;SDS011;11824;51.178;13.546;2023-08-12T00:31:51;16.67;;;10.00;;
4420;SDS011;11824;51.178;13.546;2023-08-12T00:34:20;18.60;;;10.57;;
4420;SDS011;11824;51.178;13.546;2023-08-12T00:36:49;34.03;;;10.63;;
4420;SDS011;11824;51.178;13.546;2023-08-12T00:39:19;18.60;;;10.60;;
4420;SDS011;11824;51.178;13.546;2023-08-12T00:41:49;17.33;;;10.67;;
4420;SDS011;11824;51.178;13.546;2023-08-12T00:44:17;14.40;;;10.33;;
4420;SDS011;11824;51.178;13.546;2023-08-12T00:46:46;18.50;;;10.00;;
4420;SDS011;11824;51.178;13.546;2023-08-12T00:49:17;15.40;;;10.50;;
4420;SDS011;11824;51.178;13.546;2023-08-12T00:51:46;11.83;;;9.63;;
4420;SDS011;11824;51.178;13.546;2023-08-12T00:54:17;15.40;;;10.17;;
4420;SDS011;11824;51.178;13.546;2023-08-12T00:56:49;15.87;;;9.27;;
4420;SDS011;11824;51.178;13.546;2023-08-12T00:59:20;13.57;;;8.63;;
4420;SDS011;11824;51.178;13.546;2023-08-12T01:01:49;14.13;;;8.90;;
4420;SDS011;11824;51.178;13.546;2023-08-12T01:04:18;13.00;;;8.47;;
4420;SDS011;11824;51.178;13.546;2023-08-12T01:06:47;12.60;;;9.33;;
4420;SDS011;11824;51.178;13.546;2023-08-12T01:09:15;13.27;;;9.73;;
4420;SDS011;11824;51.178;13.546;2023-08-12T01:11:48;15.13;;;10.50;;
4420;SDS011;11824;51.178;13.546;2023-08-12T01:14:22;14.27;;;10.30;;
4420;SDS011;11824;51.178;13.546;2023-08-12T01:16:56;15.80;;;9.20;;
4420;SDS011;11824;51.178;13.546;2023-08-12T01:19:29;15.73;;;9.53;;
4420;SDS011;11824;51.178;13.546;2023-08-12T01:22:02;14.83;;;9.37;;
4420;SDS011;11824;51.178;13.546;2023-08-12T01:24:38;13.07;;;9.37;;
4420;SDS011;11824;51.178;13.546;2023-08-12T01:27:08;15.40;;;10.27;;
4420;SDS011;11824;51.178;13.546;2023-08-12T01:29:39;17.40;;;8.83;;
4420;SDS011;11824;51.178;13.546;2023-08-12T01:32:12;10.93;;;8.40;;
4420;SDS011;11824;51.178;13.546;2023-08-12T01:34:49;17.20;;;8.80;;
4420;SDS011;11824;51.178;13.546;2023-08-12T01:37:23;18.20;;;9.73;;
4420;SDS011;11824;51.178;13.546;2023-08-12T01:39:56;12.20;;;7.87;;
4420;SDS011;11824;51.178;13.546;2023-08-12T01:42:30;15.90;;;8.07;;
4420;SDS011;11824;51.178;13.546;2023-08-12T01:45:00;14.80;;;9.83;;
4420;SDS011;11824;51.178;13.546;2023-08-12T01:47:30;14.10;;;8.63;;
4420;SDS011;11824;51.178;13.546;2023-08-12T01:49:59;10.20;;;7.90;;
4420;SDS011;11824;51.178;13.546;2023-08-12T01:52:28;11.93;;;8.30;;
4420;SDS011;11824;51.178;13.546;2023-08-12T01:54:58;10.83;;;7.80;;
4420;SDS011;11824;51.178;13.546;2023-08-12T01:57:27;14.30;;;9.10;;
4420;SDS011;11824;51.178;13.546;2023-08-12T01:59:56;16.63;;;8.23;;
4420;SDS011;11824;51.178;13.546;2023-08-12T02:02:24;10.90;;;7.80;;
4420;SDS011;11824;51.178;13.546;2023-08-12T02:04:53;11.10;;;7.80;;
4420;SDS011;11824;51.178;13.546;2023-08-12T02:07:22;11.67;;;8.30;;
4420;SDS011;11824;51.178;13.546;2023-08-12T02:09:51;10.77;;;8.30;;
4420;SDS011;11824;51.178;13.546;2023-08-12T02:12:21;10.70;;;8.17;;
4420;SDS011;11824;51.178;13.546;2023-08-12T02:14:50;11.17;;;8.10;;
4420;SDS011;11824;51.178;13.546;2023-08-12T02:17:19;16.60;;;8.10;;
4420;SDS011;11824;51.178;13.546;2023-08-12T02:19:48;11.10;;;9.00;;
4420;SDS011;11824;51.178;13.546;2023-08-12T02:22:16;11.60;;;8.80;;
4420;SDS011;11824;51.178;13.546;2023-08-12T02:24:45;12.70;;;8.97;;
4420;SDS011;11824;51.178;13.546;2023-08-12T02:27:14;14.73;;;7.83;;
4420;SDS011;11824;51.178;13.546;2023-08-12T02:29:44;13.87;;;9.07;;
4420;SDS011;11824;51.178;13.546;2023-08-12T02:32:13;13.13;;;8.97;;
4420;SDS011;11824;51.178;13.546;2023-08-12T02:34:41;14.97;;;8.33;;
4420;SDS011;11824;51.178;13.546;2023-08-12T02:37:10;14.37;;;9.27;;
4420;SDS011;11824;51.178;13.546;2023-08-12T02:39:40;14.63;;;8.70;;
4420;SDS011;11824;51.178;13.546;2023-08-12T02:42:08;15.23;;;8.43;;
4420;SDS011;11824;51.178;13.546;2023-08-12T02:44:37;11.20;;;8.83;;
4420;SDS011;11824;51.178;13.546;2023-08-12T02:47:07;9.93;;;8.33;;
4420;SDS011;11824;51.178;13.546;2023-08-12T02:49:37;15.00;;;8.73;;
4420;SDS011;11824;51.178;13.546;2023-08-12T02:52:05;13.97;;;9.90;;
4420;SDS011;11824;51.178;13.546;2023-08-12T02:54:34;12.00;;;9.00;;
4420;SDS011;11824;51.178;13.546;2023-08-12T02:57:03;12.57;;;9.00;;
4420;SDS011;11824;51.178;13.546;2023-08-12T02:59:32;15.20;;;9.33;;
4420;SDS011;11824;51.178;13.546;2023-08-12T03:02:01;13.73;;;8.67;;
4420;SDS011;11824;51.178;13.546;2023-08-12T03:04:31;15.03;;;8.60;;
4420;SDS011;11824;51.178;13.546;2023-08-12T03:07:00;11.20;;;8.50;;
4420;SDS011;11824;51.178;13.546;2023-08-12T03:09:30;16.70;;;9.10;;
4420;SDS011;11824;51.178;13.546;2023-08-12T03:11:58;11.87;;;8.50;;
4420;SDS011;11824;51.178;13.546;2023-08-12T03:14:29;13.10;;;8.30;;
4420;SDS011;11824;51.178;13.546;2023-08-12T03:16:58;13.03;;;8.47;;
4420;SDS011;11824;51.178;13.546;2023-08-12T03:19:27;9.57;;;8.27;;
4420;SDS011;11824;51.178;13.546;2023-08-12T03:21:57;16.00;;;9.50;;
4420;SDS011;11824;51.178;13.546;2023-08-12T03:24:26;16.87;;;9.17;;
4420;SDS011;11824;51.178;13.546;2023-08-12T03:26:55;14.47;;;8.93;;
4420;SDS011;11824;51.178;13.546;2023-08-12T03:29:24;12.40;;;8.73;;
4420;SDS011;11824;51.178;13.546;2023-08-12T03:31:52;13.27;;;8.90;;
4420;SDS011;11824;51.178;13.546;2023-08-12T03:34:21;15.93;;;8.80;;
4420;SDS011;11824;51.178;13.546;2023-08-12T03:36:50;15.03;;;10.00;;
4420;SDS011;11824;51.178;13.546;2023-08-12T03:39:20;11.50;;;10.20;;
4420;SDS011;11824;51.178;13.546;2023-08-12T03:41:49;13.90;;;9.90;;
4420;SDS011;11824;51.178;13.546;2023-08-12T03:44:19;14.90;;;9.30;;
4420;SDS011;11824;51.178;13.546;2023-08-12T03:46:48;15.40;;;9.90;;
4420;SDS011;11824;51.178;13.546;2023-08-12T03:49:16;10.80;;;8.37;;
4420;SDS011;11824;51.178;13.546;2023-08-12T03:51:47;11.57;;;9.20;;
4420;SDS011;11824;51.178;13.546;2023-08-12T03:54:17;21.07;;;8.03;;
4420;SDS011;11824;51.178;13.546;2023-08-12T03:56:48;18.23;;;8.27;;
4420;SDS011;11824;51.178;13.546;2023-08-12T03:59:16;11.83;;;7.93;;
4420;SDS011;11824;51.178;13.546;2023-08-12T04:01:45;10.53;;;8.50;;
4420;SDS011;11824;51.178;13.546;2023-08-12T04:04:14;13.70;;;8.70;;
4420;SDS011;11824;51.178;13.546;2023-08-12T04:06:43;11.40;;;8.77;;
4420;SDS011;11824;51.178;13.546;2023-08-12T04:09:11;16.60;;;9.70;;
4420;SDS011;11824;51.178;13.546;2023-08-12T04:11:41;16.03;;;9.10;;
4420;SDS011;11824;51.178;13.546;2023-08-12T04:14:10;18.63;;;8.57;;
4420;SDS011;11824;51.178;13.546;2023-08-12T04:16:39;12.33;;;8.17;;
4420;SDS011;11824;51.178;13.546;2023-08-12T04:19:08;21.77;;;8.57;;
4420;SDS011;11824;51.178;13.546;2023-08-12T04:21:37;11.63;;;8.60;;
4420;SDS011;11824;51.178;13.546;2023-08-12T04:24:06;10.87;;;7.57;;
4420;SDS011;11824;51.178;13.546;2023-08-12T04:26:35;13.00;;;8.83;;
4420;SDS011;11824;51.178;13.546;2023-08-12T04:29:06;21.37;;;8.27;;
4420;SDS011;11824;51.178;13.546;2023-08-12T04:31:34;14.67;;;8.53;;
4420;SDS011;11824;51.178;13.546;2023-08-12T04:34:03;9.47;;;7.77;;
4420;SDS011;11824;51.178;13.546;2023-08-12T04:36:32;32.13;;;10.07;;
4420;SDS011;11824;51.178;13.546;2023-08-12T04:39:01;9.47;;;7.73;;
4420;SDS011;11824;51.178;13.546;2023-08-12T04:41:30;12.27;;;8.20;;
4420;SDS011;11824;51.178;13.546;2023-08-12T04:43:59;9.33;;;7.83;;
4420;SDS011;11824;51.178;13.546;2023-08-12T04:46:30;11.30;;;8.93;;
4420;SDS011;11824;51.178;13.546;2023-08-12T04:48:59;15.37;;;9.10;;
4420;SDS011;11824;51.178;13.546;2023-08-12T04:51:27;13.90;;;8.53;;
4420;SDS011;11824;51.178;13.546;2023-08-12T04:53:57;8.77;;;7.00;;
4420;SDS011;11824;51.178;13.546;2023-08-12T04:56:27;11.53;;;7.10;;
4420;SDS011;11824;51.178;13.546;2023-08-12T04:58:56;12.07;;;7.17;;
4420;SDS011;11824;51.178;13.546;2023-08-12T05:01:25;9.67;;;7.63;;
4420;SDS011;11824;51.178;13.546;2023-08-12T05:03:55;8.50;;;6.83;;
4420;SDS011;11824;51.178;13.546;2023-08-12T05:06:24;8.10;;;6.50;;
4420;SDS011;11824;51.178;13.546;2023-08-12T05:08:53;13.07;;;6.70;;
4420;SDS011;11824;51.178;13.546;2023-08-12T05:11:21;14.70;;;6.70;;
4420;SDS011;11824;51.178;13.546;2023-08-12T05:13:50;14.93;;;6.50;;
4420;SDS011;11824;51.178;13.546;2023-08-12T05:16:19;8.40;;;6.80;;
4420;SDS011;11824;51.178;13.546;2023-08-12T05:18:48;10.10;;;8.47;;
4420;SDS011;11824;51.178;13.546;2023-08-12T05:21:18;9.93;;;5.87;;
4420;SDS011;11824;51.178;13.546;2023-08-12T05:23:47;13.70;;;5.20;;
4420;SDS011;11824;51.178;13.546;2023-08-12T05:26:16;8.27;;;5.20;;
4420;SDS011;11824;51.178;13.546;2023-08-12T05:28:46;8.83;;;4.80;;
4420;SDS011;11824;51.178;13.546;2023-08-12T05:31:15;6.97;;;5.10;;
4420;SDS011;11824;51.178;13.546;2023-08-12T05:33:44;7.77;;;4.43;;
4420;SDS011;11824;51.178;13.546;2023-08-12T05:36:13;6.23;;;3.90;;
4420;SDS011;11824;51.178;13.546;2023-08-12T05:38:43;12.10;;;5.03;;
4420;SDS011;11824;51.178;13.546;2023-08-12T05:41:12;4.57;;;4.00;;
4420;SDS011;11824;51.178;13.546;2023-08-12T05:43:40;4.30;;;3.53;;
4420;SDS011;11824;51.178;13.546;2023-08-12T05:46:10;5.40;;;4.17;;
4420;SDS011;11824;51.178;13.546;2023-08-12T05:48:39;5.50;;;3.87;;
4420;SDS011;11824;51.178;13.546;2023-08-12T05:51:08;9.73;;;4.83;;
4420;SDS011;11824;51.178;13.546;2023-08-12T05:53:37;9.10;;;4.23;;
4420;SDS011;11824;51.178;13.546;2023-08-12T05:56:07;7.63;;;3.83;;
4420;SDS011;11824;51.178;13.546;2023-08-12T05:58:36;6.97;;;3.67;;
4420;SDS011;11824;51.178;13.546;2023-08-12T06:01:05;4.97;;;4.50;;
4420;SDS011;11824;51.178;13.546;2023-08-12T06:03:34;5.57;;;3.70;;
4420;SDS011;11824;51.178;13.546;2023-08-12T06:06:03;7.20;;;4.17;;
4420;SDS011;11824;51.178;13.546;2023-08-12T06:08:31;4.90;;;3.90;;
4420;SDS011;11824;51.178;13.546;2023-08-12T06:11:00;7.60;;;4.63;;
4420;SDS011;11824;51.178;13.546;2023-08-12T06:13:30;7.93;;;4.40;;
4420;SDS011;11824;51.178;13.546;2023-08-12T06:15:59;7.00;;;4.10;;
4420;SDS011;11824;51.178;13.546;2023-08-12T06:18:28;4.00;;;3.47;;
4420;SDS011;11824;51.178;13.546;2023-08-12T06:20:57;9.10;;;3.70;;
4420;SDS011;11824;51.178;13.546;2023-08-12T06:23:26;8.80;;;3.93;;
4420;SDS011;11824;51.178;13.546;2023-08-12T06:25:56;6.77;;;3.80;;
4420;SDS011;11824;51.178;13.546;2023-08-12T06:28:25;5.77;;;3.57;;
4420;SDS011;11824;51.178;13.546;2023-08-12T06:30:55;10.13;;;3.73;;
4420;SDS011;11824;51.178;13.546;2023-08-12T06:33:24;10.37;;;4.03;;
4420;SDS011;11824;51.178;13.546;2023-08-12T06:35:52;6.70;;;4.20;;
4420;SDS011;11824;51.178;13.546;2023-08-12T06:38:21;6.77;;;4.20;;
4420;SDS011;11824;51.178;13.546;2023-08-12T06:40:50;9.30;;;4.50;;
4420;SDS011;11824;51.178;13.546;2023-08-12T06:43:19;8.90;;;4.27;;
4420;SDS011;11824;51.178;13.546;2023-08-12T06:45:48;7.80;;;4.40;;
4420;SDS011;11824;51.178;13.546;2023-08-12T06:48:18;11.20;;;3.90;;
4420;SDS011;11824;51.178;13.546;2023-08-12T06:50:52;5.50;;;3.53;;
4420;SDS011;11824;51.178;13.546;2023-08-12T06:53:21;6.60;;;3.80;;
4420;SDS011;11824;51.178;13.546;2023-08-12T06:55:50;4.73;;;4.10;;
4420;SDS011;11824;51.178;13.546;2023-08-12T06:58:19;6.33;;;3.97;;
4420;SDS011;11824;51.178;13.546;2023-08-12T07:00:48;9.10;;;5.17;;
4420;SDS011;11824;51.178;13.546;2023-08-12T07:03:20;4.73;;;3.47;;
4420;SDS011;11824;51.178;13.546;2023-08-12T07:05:49;4.03;;;3.47;;
4420;SDS011;11824;51.178;13.546;2023-08-12T07:08:18;7.13;;;3.30;;
4420;SDS011;11824;51.178;13.546;2023-08-12T07:10:46;8.03;;;3.83;;
4420;SDS011;11824;51.178;13.546;2023-08-12T07:13:15;7.60;;;3.77;;
4420;SDS011;11824;51.178;13.546;2023-08-12T07:15:44;8.23;;;3.97;;
4420;SDS011;11824;51.178;13.546;2023-08-12T07:18:13;7.80;;;4.47;;
4420;SDS011;11824;51.178;13.546;2023-08-12T07:20:43;4.80;;;3.70;;
4420;SDS011;11824;51.178;13.546;2023-08-12T07:23:12;7.77;;;4.13;;
4420;SDS011;11824;51.178;13.546;2023-08-12T07:25:41;4.70;;;3.90;;
4420;SDS011;11824;51.178;13.546;2023-08-12T07:28:09;4.87;;;4.20;;
4420;SDS011;11824;51.178;13.546;2023-08-12T07:30:38;4.77;;;3.90;;
4420;SDS011;11824;51.178;13.546;2023-08-12T07:33:07;4.47;;;4.07;;
4420;SDS011;11824;51.178;13.546;2023-08-12T07:35:36;6.40;;;3.90;;
4420;SDS011;11824;51.178;13.546;2023-08-12T07:38:06;5.17;;;4.40;;
4420;SDS011;11824;51.178;13.546;2023-08-12T07:40:35;23.70;;;4.33;;
4420;SDS011;11824;51.178;13.546;2023-08-12T07:43:07;8.70;;;4.27;;
4420;SDS011;11824;51.178;13.546;2023-08-12T07:45:36;7.57;;;5.33;;
4420;SDS011;11824;51.178;13.546;2023-08-12T07:48:05;6.90;;;4.67;;
4420;SDS011;11824;51.178;13.546;2023-08-12T07:50:34;6.90;;;4.57;;
4420;SDS011;11824;51.178;13.546;2023-08-12T07:53:03;5.23;;;4.63;;
4420;SDS011;11824;51.178;13.546;2023-08-12T07:55:34;6.10;;;5.00;;
4420;SDS011;11824;51.178;13.546;2023-08-12T07:58:03;4.40;;;4.00;;
4420;SDS011;11824;51.178;13.546;2023-08-12T08:00:32;5.67;;;4.33;;
4420;SDS011;11824;51.178;13.546;2023-08-12T08:03:01;7.20;;;5.17;;
4420;SDS011;11824;51.178;13.546;2023-08-12T08:05:30;12.33;;;5.10;;
4420;SDS011;11824;51.178;13.546;2023-08-12T08:07:59;7.73;;;5.37;;
4420;SDS011;11824;51.178;13.546;2023-08-12T08:10:29;8.00;;;4.23;;
4420;SDS011;11824;51.178;13.546;2023-08-12T08:12:58;6.17;;;3.73;;
4420;SDS011;11824;51.178;13.546;2023-08-12T08:15:27;5.67;;;4.07;;
4420;SDS011;11824;51.178;13.546;2023-08-12T08:17:56;5.67;;;4.30;;
4420;SDS011;11824;51.178;13.546;2023-08-12T08:20:27;10.93;;;4.60;;
4420;SDS011;11824;51.178;13.546;2023-08-12T08:22:56;7.27;;;4.13;;
4420;SDS011;11824;51.178;13.546;2023-08-12T08:25:25;6.73;;;4.67;;
4420;SDS011;11824;51.178;13.546;2023-08-12T08:27:55;4.87;;;4.30;;
4420;SDS011;11824;51.178;13.546;2023-08-12T08:30:24;6.80;;;3.90;;
4420;SDS011;11824;51.178;13.546;2023-08-12T08:32:53;6.90;;;4.60;;
4420;SDS011;11824;51.178;13.546;2023-08-12T08:35:22;7.20;;;4.33;;
4420;SDS011;11824;51.178;13.546;2023-08-12T08:37:52;12.77;;;4.73;;
4420;SDS011;11824;51.178;13.546;2023-08-12T08:40:21;7.03;;;4.10;;
4420;SDS011;11824;51.178;13.546;2023-08-12T08:42:52;6.33;;;4.13;;
4420;SDS011;11824;51.178;13.546;2023-08-12T08:45:25;18.50;;;4.57;;
4420;SDS011;11824;51.178;13.546;2023-08-12T08:47:55;13.97;;;4.50;;
4420;SDS011;11824;51.178;13.546;2023-08-12T08:50:24;4.67;;;4.17;;
4420;SDS011;11824;51.178;13.546;2023-08-12T08:52:53;3.73;;;3.40;;
4420;SDS011;11824;51.178;13.546;2023-08-12T08:55:24;5.43;;;4.43;;
4420;SDS011;11824;51.178;13.546;2023-08-12T08:57:55;10.10;;;4.20;;
4420;SDS011;11824;51.178;13.546;2023-08-12T09:00:31;3.90;;;3.60;;
4420;SDS011;11824;51.178;13.546;2023-08-12T09:03:00;7.03;;;5.40;;
4420;SDS011;11824;51.178;13.546;2023-08-12T09:05:30;5.53;;;4.27;;
4420;SDS011;11824;51.178;13.546;2023-08-12T09:08:00;7.20;;;4.20;;
4420;SDS011;11824;51.178;13.546;2023-08-12T09:10:33;5.57;;;4.27;;
4420;SDS011;11824;51.178;13.546;2023-08-12T09:13:05;5.07;;;4.00;;
4420;SDS011;11824;51.178;13.546;2023-08-12T09:15:35;9.10;;;3.40;;
4420;SDS011;11824;51.178;13.546;2023-08-12T09:18:04;4.10;;;3.80;;
4420;SDS011;11824;51.178;13.546;2023-08-12T09:20:33;4.53;;;3.80;;
4420;SDS011;11824;51.178;13.546;2023-08-12T09:23:02;11.23;;;4.17;;
4420;SDS011;11824;51.178;13.546;2023-08-12T09:25:35;4.37;;;3.97;;
4420;SDS011;11824;51.178;13.546;2023-08-12T09:28:09;4.10;;;3.70;;
4420;SDS011;11824;51.178;13.546;2023-08-12T09:30:39;6.10;;;3.00;;
4420;SDS011;11824;51.178;13.546;2023-08-12T09:33:08;4.10;;;3.33;;
4420;SDS011;11824;51.178;13.546;2023-08-12T09:35:38;7.03;;;3.10;;
4420;SDS011;11824;51.178;13.546;2023-08-12T09:38:11;3.40;;;3.10;;
4420;SDS011;11824;51.178;13.546;2023-08-12T09:40:40;4.27;;;3.13;;
4420;SDS011;11824;51.178;13.546;2023-08-12T09:43:11;4.60;;;3.13;;
4420;SDS011;11824;51.178;13.546;2023-08-12T09:45:40;5.07;;;3.57;;
4420;SDS011;11824;51.178;13.546;2023-08-12T09:48:11;3.50;;;3.20;;
4420;SDS011;11824;51.178;13.546;2023-08-12T09:50:43;3.47;;;3.17;;
4420;SDS011;11824;51.178;13.546;2023-08-12T09:53:12;5.13;;;2.93;;
4420;SDS011;11824;51.178;13.546;2023-08-12T09:55:42;5.47;;;2.97;;
4420;SDS011;11824;51.178;13.546;2023-08-12T09:58:17;5.30;;;3.10;;
4420;SDS011;11824;51.178;13.546;2023-08-12T10:00:47;3.63;;;3.33;;
4420;SDS011;11824;51.178;13.546;2023-08-12T10:03:17;9.23;;;3.10;;
4420;SDS011;11824;51.178;13.546;2023-08-12T10:05:47;6.77;;;2.87;;
4420;SDS011;11824;51.178;13.546;2023-08-12T10:08:17;3.30;;;3.00;;
4420;SDS011;11824;51.178;13.546;2023-08-12T10:10:47;6.70;;;2.63;;
4420;SDS011;11824;51.178;13.546;2023-08-12T10:13:37;4.20;;;2.97;;
4420;SDS011;11824;51.178;13.546;2023-08-12T10:16:08;4.50;;;3.47;;
4420;SDS011;11824;51.178;13.546;2023-08-12T10:18:38;5.60;;;3.33;;
4420;SDS011;11824;51.178;13.546;2023-08-12T10:21:08;3.47;;;3.17;;
4420;SDS011;11824;51.178;13.546;2023-08-12T10:23:40;4.47;;;2.60;;
4420;SDS011;11824;51.178;13.546;2023-08-12T10:26:13;6.63;;;3.90;;
4420;SDS011;11824;51.178;13.546;2023-08-12T10:28:45;5.23;;;3.23;;
4420;SDS011;11824;51.178;13.546;2023-08-12T10:31:18;8.00;;;3.30;;
4420;SDS011;11824;51.178;13.546;2023-08-12T10:33:48;3.30;;;3.00;;
4420;SDS011;11824;51.178;13.546;2023-08-12T10:36:17;4.30;;;2.83;;
4420;SDS011;11824;51.178;13.546;2023-08-12T10:41:19;4.40;;;2.57;;
4420;SDS011;11824;51.178;13.546;2023-08-12T10:43:53;9.27;;;2.50;;
4420;SDS011;11824;51.178;13.546;2023-08-12T10:46:23;5.20;;;2.90;;
4420;SDS011;11824;51.178;13.546;2023-08-12T10:49:02;9.20;;;3.83;;
4420;SDS011;11824;51.178;13.546;2023-08-12T10:51:44;2.47;;;2.27;;
4420;SDS011;11824;51.178;13.546;2023-08-12T10:54:14;3.10;;;2.80;;
4420;SDS011;11824;51.178;13.546;2023-08-12T11:02:26;2.57;;;2.13;;
4420;SDS011;11824;51.178;13.546;2023-08-12T11:04:57;4.30;;;2.60;;
4420;SDS011;11824;51.178;13.546;2023-08-12T11:07:33;2.27;;;2.07;;
4420;SDS011;11824;51.178;13.546;2023-08-12T11:10:06;2.83;;;2.10;;
4420;SDS011;11824;51.178;13.546;2023-08-12T11:12:40;3.17;;;2.43;;
4420;SDS011;11824;51.178;13.546;2023-08-12T11:15:10;2.27;;;2.07;;
4420;SDS011;11824;51.178;13.546;2023-08-12T11:17:40;4.30;;;2.50;;
4420;SDS011;11824;51.178;13.546;2023-08-12T11:20:09;2.80;;;2.57;;
4420;SDS011;11824;51.178;13.546;2023-08-12T11:22:39;6.30;;;2.43;;
4420;SDS011;11824;51.178;13.546;2023-08-12T11:25:10;4.17;;;1.97;;
4420;SDS011;11824;51.178;13.546;2023-08-12T11:27:40;2.80;;;1.93;;
4420;SDS011;11824;51.178;13.546;2023-08-12T11:30:12;2.30;;;2.10;;
4420;SDS011;11824;51.178;13.546;2023-08-12T11:32:42;3.43;;;2.40;;
4420;SDS011;11824;51.178;13.546;2023-08-12T11:35:12;3.90;;;1.90;;
4420;SDS011;11824;51.178;13.546;2023-08-12T11:37:45;4.33;;;2.10;;
4420;SDS011;11824;51.178;13.546;2023-08-12T11:40:18;10.50;;;2.90;;
4420;SDS011;11824;51.178;13.546;2023-08-12T11:42:47;4.70;;;2.33;;
4420;SDS011;11824;51.178;13.546;2023-08-12T11:45:21;6.40;;;3.50;;
4420;SDS011;11824;51.178;13.546;2023-08-12T11:47:51;2.60;;;2.40;;
4420;SDS011;11824;51.178;13.546;2023-08-12T11:50:22;2.27;;;1.97;;
4420;SDS011;11824;51.178;13.546;2023-08-12T11:52:53;21.53;;;2.57;;
4420;SDS011;11824;51.178;13.546;2023-08-12T11:55:24;3.53;;;2.33;;
4420;SDS011;11824;51.178;13.546;2023-08-12T11:57:54;7.70;;;2.80;;
4420;SDS011;11824;51.178;13.546;2023-08-12T12:00:24;2.70;;;2.30;;
4420;SDS011;11824;51.178;13.546;2023-08-12T12:02:54;4.33;;;2.60;;
4420;SDS011;11824;51.178;13.546;2023-08-12T12:05:25;2.50;;;2.30;;
4420;SDS011;11824;51.178;13.546;2023-08-12T12:07:56;2.87;;;2.63;;
4420;SDS011;11824;51.178;13.546;2023-08-12T12:10:27;3.60;;;2.63;;
4420;SDS011;11824;51.178;13.546;2023-08-12T12:13:00;3.87;;;2.63;;
4420;SDS011;11824;51.178;13.546;2023-08-12T12:15:37;13.20;;;3.70;;
4420;SDS011;11824;51.178;13.546;2023-08-12T12:18:09;3.07;;;2.77;;
4420;SDS011;11824;51.178;13.546;2023-08-12T12:20:42;4.00;;;2.13;;
4420;SDS011;11824;51.178;13.546;2023-08-12T12:23:22;5.43;;;2.60;;
4420;SDS011;11824;51.178;13.546;2023-08-12T12:25:56;3.17;;;2.87;;
4420;SDS011;11824;51.178;13.546;2023-08-12T12:28:26;3.70;;;3.00;;
4420;SDS011;11824;51.178;13.546;2023-08-12T12:30:57;4.93;;;3.20;;
4420;SDS011;11824;51.178;13.546;2023-08-12T12:33:25;4.93;;;2.73;;
4420;SDS011;11824;51.178;13.546;2023-08-12T12:35:55;4.10;;;2.83;;
4420;SDS011;11824;51.178;13.546;2023-08-12T12:38:27;4.43;;;2.73;;
4420;SDS011;11824;51.178;13.546;2023-08-12T12:43:24;2.77;;;2.57;;
4420;SDS011;11824;51.178;13.546;2023-08-12T12:45:53;4.17;;;2.60;;
4420;SDS011;11824;51.178;13.546;2023-08-12T12:48:23;7.13;;;2.40;;
4420;SDS011;11824;51.178;13.546;2023-08-12T12:50:52;3.37;;;2.33;;
4420;SDS011;11824;51.178;13.546;2023-08-12T12:53:21;3.10;;;2.40;;
4420;SDS011;11824;51.178;13.546;2023-08-12T12:55:49;5.37;;;2.97;;
4420;SDS011;11824;51.178;13.546;2023-08-12T12:58:18;2.53;;;2.30;;
4420;SDS011;11824;51.178;13.546;2023-08-12T13:00:49;9.90;;;2.87;;
4420;SDS011;11824;51.178;13.546;2023-08-12T13:03:18;12.13;;;2.50;;
4420;SDS011;11824;51.178;13.546;2023-08-12T13:05:48;4.43;;;2.27;;
4420;SDS011;11824;51.178;13.546;2023-08-12T13:08:18;2.60;;;1.90;;
4420;SDS011;11824;51.178;13.546;2023-08-12T13:10:47;9.13;;;3.17;;
4420;SDS011;11824;51.178;13.546;2023-08-12T13:13:16;6.30;;;2.73;;
4420;SDS011;11824;51.178;13.546;2023-08-12T13:15:45;6.70;;;3.00;;
4420;SDS011;11824;51.178;13.546;2023-08-12T13:18:14;5.30;;;2.87;;
4420;SDS011;11824;51.178;13.546;2023-08-12T13:20:43;7.47;;;2.80;;
4420;SDS011;11824;51.178;13.546;2023-08-12T13:23:15;9.60;;;2.53;;
4420;SDS011;11824;51.178;13.546;2023-08-12T13:25:47;6.40;;;2.73;;
4420;SDS011;11824;51.178;13.546;2023-08-12T13:28:16;2.37;;;2.17;;
4420;SDS011;11824;51.178;13.546;2023-08-12T13:30:45;2.30;;;2.10;;
4420;SDS011;11824;51.178;13.546;2023-08-12T13:33:13;4.10;;;2.53;;
4420;SDS011;11824;51.178;13.546;2023-08-12T13:35:42;4.50;;;2.63;;
4420;SDS011;11824;51.178;13.546;2023-08-12T13:38:11;3.10;;;2.67;;
4420;SDS011;11824;51.178;13.546;2023-08-12T13:40:41;10.40;;;2.87;;
4420;SDS011;11824;51.178;13.546;2023-08-12T13:43:09;3.00;;;2.60;;
4420;SDS011;11824;51.178;13.546;2023-08-12T13:45:38;4.40;;;2.70;;
4420;SDS011;11824;51.178;13.546;2023-08-12T13:48:07;10.13;;;2.40;;
4420;SDS011;11824;51.178;13.546;2023-08-12T13:50:36;2.53;;;2.00;;
4420;SDS011;11824;51.178;13.546;2023-08-12T13:53:04;2.03;;;1.90;;
4420;SDS011;11824;51.178;13.546;2023-08-12T13:55:33;4.67;;;1.97;;
4420;SDS011;11824;51.178;13.546;2023-08-12T13:58:03;5.30;;;2.63;;
4420;SDS011;11824;51.178;13.546;2023-08-12T14:00:32;16.73;;;2.50;;
4420;SDS011;11824;51.178;13.546;2023-08-12T14:03:01;2.23;;;2.03;;
4420;SDS011;11824;51.178;13.546;2023-08-12T14:05:30;1.70;;;1.60;;
4420;SDS011;11824;51.178;13.546;2023-08-12T14:07:59;3.63;;;1.97;;
4420;SDS011;11824;51.178;13.546;2023-08-12T14:10:28;2.30;;;1.90;;
4420;SDS011;11824;51.178;13.546;2023-08-12T14:12:56;2.70;;;2.30;;
4420;SDS011;11824;51.178;13.546;2023-08-12T14:15:26;2.90;;;2.40;;
4420;SDS011;11824;51.178;13.546;2023-08-12T14:17:55;6.70;;;3.03;;
4420;SDS011;11824;51.178;13.546;2023-08-12T14:20:24;11.37;;;3.30;;
4420;SDS011;11824;51.178;13.546;2023-08-12T14:22:53;2.60;;;2.40;;
4420;SDS011;11824;51.178;13.546;2023-08-12T14:25:22;2.70;;;2.50;;
4420;SDS011;11824;51.178;13.546;2023-08-12T14:27:50;4.43;;;2.80;;
4420;SDS011;11824;51.178;13.546;2023-08-12T14:30:19;3.07;;;2.73;;
4420;SDS011;11824;51.178;13.546;2023-08-12T14:32:53;4.70;;;2.90;;
4420;SDS011;11824;51.178;13.546;2023-08-12T14:35:23;3.40;;;2.50;;
4420;SDS011;11824;51.178;13.546;2023-08-12T14:37:52;3.40;;;2.97;;
4420;SDS011;11824;51.178;13.546;2023-08-12T14:40:20;11.30;;;3.80;;
4420;SDS011;11824;51.178;13.546;2023-08-12T14:42:49;8.37;;;2.90;;
4420;SDS011;11824;51.178;13.546;2023-08-12T14:45:18;4.23;;;3.47;;
4420;SDS011;11824;51.178;13.546;2023-08-12T14:47:47;5.97;;;3.00;;
4420;SDS011;11824;51.178;13.546;2023-08-12T14:50:17;4.13;;;2.97;;
4420;SDS011;11824;51.178;13.546;2023-08-12T14:52:46;4.50;;;3.70;;
4420;SDS011;11824;51.178;13.546;2023-08-12T14:55:14;7.40;;;3.00;;
4420;SDS011;11824;51.178;13.546;2023-08-12T14:57:43;2.97;;;2.73;;
4420;SDS011;11824;51.178;13.546;2023-08-12T15:00:12;3.83;;;3.47;;
4420;SDS011;11824;51.178;13.546;2023-08-12T15:02:41;3.50;;;3.20;;
4420;SDS011;11824;51.178;13.546;2023-08-12T15:05:10;6.60;;;3.70;;
4420;SDS011;11824;51.178;13.546;2023-08-12T15:07:41;6.07;;;3.13;;